aviador You're here:

KMRB Decoded Metar

MARTINSBURG in WV, USA
Report Time2018-06-23 05:53:00
UTC Time2018-06-23 06:15:12
Flight Rules mvfr MVFR
WindCalm
Visibility9999 m
Phenomena:N/A
Clouds:Overcast 012 Hf
Ceiling1,200 ft
Temp17°C (ISA +3)
Dew Point17°C (100% RH)
QNH1011 hPa
Density Alt1,227 ft
Elevation538 ft
Report Wrong Elevation
Raw Report
KMRB 230553Z AUTO 00000KT 10SM OVC012 17/17 A2986 RMK AO2 SLP110
60045 T01720167 10183 20172 58006=

Extra information for KMRB:More info

Metar Taf Metar & Taf Last 4 Metars F.Rules Stats Wind Profile Meteogram Temp Stats Airport Information Weather charts Add Link Nearby VenuesMetar ALERT Operation Metar Decoded Social comments

AIRNAV info for KMRB